TimeEST,TemperatureF,Dew PointF,Humidity,Sea Level PressureIn,VisibilityMPH,Wind Direction,Wind SpeedMPH,Gust SpeedMPH,PrecipitationIn,Events,Conditions,WindDirDegrees,DateUTC
12:53 AM,68.0,66.0,93,30.10,10.0,ESE,8.1,-,N/A,,Clear,120,2013-01-30 05:53:00
1:53 AM,66.9,66.0,97,30.09,10.0,ESE,6.9,-,N/A,,Clear,110,2013-01-30 06:53:00
2:53 AM,66.9,64.9,93,30.08,10.0,East,5.8,-,N/A,,Clear,100,2013-01-30 07:53:00
3:53 AM,66.9,64.9,93,30.07,10.0,ESE,6.9,-,N/A,,Clear,110,2013-01-30 08:53:00
4:53 AM,66.9,64.9,93,30.05,10.0,ESE,9.2,-,N/A,,Clear,110,2013-01-30 09:53:00
5:53 AM,66.0,64.0,93,30.06,10.0,ESE,5.8,-,N/A,,Clear,120,2013-01-30 10:53:00
6:53 AM,64.9,64.0,97,30.06,10.0,ESE,5.8,-,N/A,,Clear,120,2013-01-30 11:53:00
8:53 AM,72.0,66.9,84,30.06,10.0,SE,16.1,-,N/A,,Clear,140,2013-01-30 13:53:00
9:53 AM,75.0,66.9,76,30.06,10.0,SE,17.3,24.2,N/A,,Partly Cloudy,140,2013-01-30 14:53:00
10:16 AM,75.2,66.2,73,30.06,10.0,SE,20.7,26.5,N/A,,Mostly Cloudy,140,2013-01-30 15:16:00
10:53 AM,79.0,66.9,66,30.04,10.0,SE,20.7,31.1,N/A,,Mostly Cloudy,140,2013-01-30 15:53:00
11:53 AM,79.0,66.0,64,30.00,10.0,SE,24.2,34.5,N/A,,Mostly Cloudy,140,2013-01-30 16:53:00
12:40 PM,80.6,64.4,58,29.99,10.0,SSE,23.0,28.8,N/A,,Scattered Clouds,150,2013-01-30 17:40:00
12:53 PM,80.1,64.9,60,29.98,10.0,SSE,19.6,28.8,N/A,,Scattered Clouds,160,2013-01-30 17:53:00
1:53 PM,80.1,66.0,62,29.99,10.0,SSE,20.7,26.5,N/A,,Scattered Clouds,160,2013-01-30 18:53:00
2:53 PM,80.1,64.9,60,29.99,10.0,SSE,23.0,29.9,N/A,,Scattered Clouds,160,2013-01-30 19:53:00
3:53 PM,79.0,66.0,64,29.99,10.0,South,19.6,-,N/A,,Scattered Clouds,190,2013-01-30 20:53:00
4:53 PM,78.1,66.0,66,29.98,10.0,SSE,18.4,-,N/A,,Partly Cloudy,150,2013-01-30 21:53:00
5:53 PM,75.0,66.0,73,29.98,10.0,SSE,12.7,20.7,N/A,,Clear,160,2013-01-30 22:53:00
6:53 PM,73.0,66.9,81,29.97,10.0,SSE,6.9,-,N/A,,Partly Cloudy,160,2013-01-30 23:53:00
7:53 PM,72.0,66.9,84,29.98,10.0,South,8.1,-,N/A,,Clear,170,2013-01-31 00:53:00
8:53 PM,72.0,68.0,87,30.00,10.0,South,6.9,-,N/A,,Clear,180,2013-01-31 01:53:00
9:35 PM,71.6,68.0,88,29.99,10.0,South,5.8,-,N/A,,Mostly Cloudy,170,2013-01-31 02:35:00
9:53 PM,72.0,68.0,87,29.98,10.0,SSE,10.4,-,N/A,,Mostly Cloudy,160,2013-01-31 02:53:00
10:06 PM,71.6,68.0,88,29.98,10.0,South,9.2,-,N/A,,Scattered Clouds,170,2013-01-31 03:06:00
10:53 PM,72.0,69.1,91,29.99,10.0,South,9.2,-,N/A,,Clear,170,2013-01-31 03:53:00
11:53 PM,71.1,69.1,93,29.99,10.0,South,9.2,-,N/A,,Clear,170,2013-01-31 04:53:00